Aérodrome :
LOGIN :

S'inscrire | Disclaimer

   EN    FR    IT 

 










Légende :    VFR   VFR Marginal   IFR   IFR Intensif   IFR Très Intensif
Visi : 
Plafond : 
>= 8 km
>= 3000ft
5 à 8 km
1000 à 3000 ft
1500m à 5 km
500 à 1000 ft
800 à 1500m
200 à 500 ft
< 800m
< 200 ft
Symboles :   Orages  Brouillard  Fortes neiges  Fortes précipitations  Vent > 20 kt
SIGMETs :   Divers  Orages  Givrage  Turbulence  Onde Orograph.  Cendres Volcan.







- Altitude de l'aérodrome : 1115 ft
- Code IATA : GRZ


LOWG - Graz

DERNIER METAR :
  • 240020Z AUTO VRB02KT 8000 FEW002 BKN120 18/18 Q1014

METARs EXPIRÉS :
  • 232350Z AUTO VRB02KT 9999 FEW060 BKN120 19/18 Q1015
  • 232320Z AUTO VRB02KT 9999 FEW036 BKN110 19/18 Q1015
  • 232250Z AUTO VRB01KT 9999 -SHRA SCT070 BKN110 19/18 Q1016
  • 232220Z AUTO VRB02KT 9999 FEW048 SCT100 BKN120 19/18 Q1016
  • 232150Z AUTO 27004KT 240V300 9999 -SHRA FEW050 SCT060 BKN100 19/18 Q1016

TAF TAF LOWG
Valide du 24 à 00h jusqu'au 25 à 00h UTC


232315Z 2400/2424 35006KT 9999 FEW050 SCT120 TX23/2414Z TN18/2403Z
BECMG 2400/2402 6000 -RA FEW002 BKN030
PROB40
TEMPO 2400/2408 2000 BCFG SCT004 BKN012
TEMPO 2403/2411 VRB15G25KT TSRA SCT040 FEW050CB BKN070
BECMG 2411/2413 15005KT 9999 NSW SCT020 SCT120
PROB30
TEMPO 2417/2420 20012KT 4000 TSRA FEW030CB BKN040
BECMG 2420/2423 35012KT 9999 FEW040 BKN120
Pas de NOTAMs connus pour ce terrain.



MET'MAP, la Météo Aéronautique d'un coup d'oeil ! - Copyright ORBIFLY Décembre 2007 - Disclaimer

ORBIFLY MET'MAP TEAM :

Programmation & Développement : Alexandra Zaïnal
Conception & Développement : Baudouin d'Aumeries
Co-Programmation & Développement : Marc-Olivier Méhu
Soutien technique & logistique : Manuel Goepfert

Contact : metmap@orbifly.com




SOURCES & CREDITS :

   NOAA